Time;durP1;ratioP1;P1;durP2;ratioP2;P2;SDS_P1;SDS_P2;PMS_P1;PMS_P2;Temp;Humidity;BMP_temperature;BMP_pressure;BME280_temperature;BME280_humidity;BME280_pressure;Samples;Min_cycle;Max_cycle;Signal;HPM_P1;HPM_P2
2022/08/05 00:00:28;;;;;;;;;;;22.10;65.00;;;;;;4951995;28;19927;-84
2022/08/05 00:02:54;;;;;;;;;;;22.10;64.80;;;;;;4932754;29;19915;-84
2022/08/05 00:05:20;;;;;;;;;;;22.00;65.00;;;;;;4949339;28;20009;-84
2022/08/05 00:07:45;;;;;;;;;;;22.00;66.10;;;;;;4932757;29;20602;-84
2022/08/05 00:10:11;;;;;;;;;;;21.90;65.70;;;;;;4948840;28;19948;-83
2022/08/05 00:12:37;;;;;;;;;;;21.80;66.30;;;;;;4926367;29;20384;-86
2022/08/05 00:15:04;;;;;;;;;;;21.80;66.90;;;;;;4916011;29;19915;-86
2022/08/05 00:17:29;;;;;;;;;;;21.70;67.20;;;;;;4966135;28;20546;-84
2022/08/05 00:19:55;;;;;;;;;;;21.70;67.00;;;;;;4941514;28;19946;-84
2022/08/05 00:22:21;;;;;;;;;;;21.70;67.50;;;;;;4943784;29;20391;-84
2022/08/05 00:24:46;;;;;;;;;;;21.60;67.40;;;;;;4950791;29;20005;-83
2022/08/05 00:27:12;;;;;;;;;;;21.60;67.50;;;;;;4964615;28;19917;-83
2022/08/05 00:29:38;;;;;;;;;;;21.60;65.90;;;;;;4935231;29;20438;-84
2022/08/05 00:32:04;;;;;;;;;;;21.60;66.30;;;;;;4916499;29;19924;-83
2022/08/05 00:34:30;;;;;;;;;;;21.60;66.00;;;;;;4927064;29;19921;-84
2022/08/05 00:36:55;;;;;;;;;;;21.70;65.40;;;;;;4934388;29;19914;-83
2022/08/05 00:39:21;;;;;;;;;;;21.70;65.10;;;;;;4943231;29;20822;-84
2022/08/05 00:41:47;;;;;;;;;;;21.80;64.40;;;;;;4923379;28;20456;-84
2022/08/05 00:44:12;;;;;;;;;;;21.90;63.20;;;;;;4958311;28;19917;-84
2022/08/05 00:46:38;;;;;;;;;;;22.00;63.20;;;;;;4957701;28;20103;-84
2022/08/05 00:49:04;;;;;;;;;;;22.10;63.10;;;;;;4950431;28;19921;-84
2022/08/05 00:51:30;;;;;;;;;;;22.10;63.40;;;;;;4943340;29;20392;-84
2022/08/05 00:53:55;;;;;;;;;;;22.20;63.80;;;;;;4932606;29;19915;-84
2022/08/05 00:56:21;;;;;;;;;;;22.20;63.80;;;;;;4920958;28;20033;-84
2022/08/05 00:58:47;;;;;;;;;;;22.10;64.00;;;;;;4940408;28;19914;-84
2022/08/05 01:01:14;;;;;;;;;;;22.10;65.20;;;;;;4928089;28;20009;-84
2022/08/05 01:03:42;;;;;;;;;;;22.10;65.20;;;;;;4950435;28;19969;-84
2022/08/05 01:06:08;;;;;;;;;;;22.00;64.80;;;;;;4930728;29;19918;-83
2022/08/05 01:08:34;;;;;;;;;;;22.00;64.90;;;;;;4914498;29;19919;-83
2022/08/05 01:11:03;;;;;;;;;;;22.00;65.80;;;;;;4943050;28;19957;-83
2022/08/05 01:13:29;;;;;;;;;;;22.00;67.60;;;;;;4943994;28;19954;-84
2022/08/05 01:15:59;;;;;;;;;;;22.00;67.80;;;;;;4937990;29;19968;-84
2022/08/05 01:18:28;;;;;;;;;;;21.90;67.50;;;;;;4934425;29;19921;-84
2022/08/05 01:21:03;;;;;;;;;;;21.90;66.80;;;;;;4937306;29;19911;-83
2022/08/05 01:23:42;;;;;;;;;;;21.90;67.00;;;;;;4933787;28;20362;-84
2022/08/05 01:26:25;;;;;;;;;;;21.80;66.90;;;;;;4951312;28;20424;-83
2022/08/05 01:28:55;;;;;;;;;;;21.80;66.80;;;;;;4932491;29;19921;-83
2022/08/05 01:31:36;;;;;;;;;;;21.70;67.50;;;;;;4942396;28;19907;-83
2022/08/05 01:34:06;;;;;;;;;;;21.70;68.40;;;;;;4946875;28;19962;-84
2022/08/05 01:36:35;;;;;;;;;;;21.70;68.50;;;;;;4941233;28;20542;-84
2022/08/05 01:39:00;;;;;;;;;;;21.60;68.90;;;;;;4934165;28;19915;-84
2022/08/05 01:41:28;;;;;;;;;;;21.60;69.80;;;;;;4915269;29;19910;-84
2022/08/05 01:43:55;;;;;;;;;;;21.50;69.70;;;;;;4941024;29;19911;-84
2022/08/05 01:46:21;;;;;;;;;;;21.50;68.40;;;;;;4939677;28;19919;-84
2022/08/05 01:48:47;;;;;;;;;;;21.50;68.00;;;;;;4915675;28;20345;-84
2022/08/05 01:51:15;;;;;;;;;;;21.40;67.90;;;;;;4944825;28;19914;-83
2022/08/05 01:53:42;;;;;;;;;;;21.40;67.60;;;;;;4937533;29;19914;-84
2022/08/05 01:56:08;;;;;;;;;;;21.50;66.20;;;;;;4926724;29;20578;-83
2022/08/05 01:58:35;;;;;;;;;;;21.50;65.90;;;;;;4936354;28;20365;-84
2022/08/05 02:01:01;;;;;;;;;;;21.50;65.60;;;;;;4929098;29;19944;-84
2022/08/05 02:03:32;;;;;;;;;;;21.50;65.00;;;;;;4930666;29;19915;-84
2022/08/05 02:05:59;;;;;;;;;;;21.60;64.90;;;;;;4918118;29;20378;-84
2022/08/05 02:08:25;;;;;;;;;;;21.60;64.80;;;;;;4931803;28;19913;-83
2022/08/05 02:10:52;;;;;;;;;;;21.60;65.20;;;;;;4949379;28;19910;-83
2022/08/05 02:13:34;;;;;;;;;;;21.60;65.00;;;;;;4915398;29;19923;-83
2022/08/05 02:16:26;;;;;;;;;;;21.70;64.70;;;;;;4930381;28;19911;-84
2022/08/05 02:18:55;;;;;;;;;;;21.70;66.20;;;;;;4930901;29;20421;-84
2022/08/05 02:21:23;;;;;;;;;;;21.70;66.00;;;;;;4944506;28;20423;-84
2022/08/05 02:23:52;;;;;;;;;;;21.70;67.20;;;;;;4933222;28;19911;-83
2022/08/05 02:26:20;;;;;;;;;;;21.70;66.50;;;;;;4917807;29;19927;-83
2022/08/05 02:28:46;;;;;;;;;;;21.80;65.40;;;;;;4915049;28;19965;-84
2022/08/05 02:31:18;;;;;;;;;;;21.80;65.30;;;;;;4925255;29;20288;-83
2022/08/05 02:33:53;;;;;;;;;;;21.80;65.20;;;;;;4946184;28;20017;-83
2022/08/05 02:36:21;;;;;;;;;;;21.80;65.30;;;;;;4937576;28;19918;-83
2022/08/05 02:38:47;;;;;;;;;;;21.80;64.80;;;;;;4930873;29;20377;-83
2022/08/05 02:41:14;;;;;;;;;;;21.90;64.80;;;;;;4933238;29;20054;-84
2022/08/05 02:43:40;;;;;;;;;;;21.90;65.10;;;;;;4945970;28;19911;-83
2022/08/05 02:46:06;;;;;;;;;;;21.90;65.00;;;;;;4926005;29;19914;-84
2022/08/05 02:48:33;;;;;;;;;;;21.80;66.90;;;;;;4949808;28;19969;-84
2022/08/05 02:51:02;;;;;;;;;;;21.80;68.20;;;;;;4948489;29;20461;-84
2022/08/05 02:53:29;;;;;;;;;;;21.80;69.60;;;;;;4937029;28;19921;-84
2022/08/05 02:55:55;;;;;;;;;;;21.70;70.00;;;;;;4916985;29;19919;-84
2022/08/05 02:58:23;;;;;;;;;;;21.60;70.40;;;;;;4946070;28;19930;-83
2022/08/05 03:00:49;;;;;;;;;;;21.50;70.90;;;;;;4948750;28;19910;-83
2022/08/05 03:03:17;;;;;;;;;;;21.50;71.00;;;;;;4945810;28;19961;-84
2022/08/05 03:05:44;;;;;;;;;;;21.40;70.70;;;;;;4935720;29;19911;-83
2022/08/05 03:08:10;;;;;;;;;;;21.30;70.80;;;;;;4946412;28;19918;-83
2022/08/05 03:10:36;;;;;;;;;;;21.20;71.20;;;;;;4936508;29;19976;-84
2022/08/05 03:13:09;;;;;;;;;;;21.20;70.90;;;;;;4936571;29;20386;-84
2022/08/05 03:15:35;;;;;;;;;;;21.10;70.70;;;;;;4952512;28;19917;-84
2022/08/05 03:18:01;;;;;;;;;;;21.10;71.60;;;;;;4936769;29;19914;-84
2022/08/05 03:20:26;;;;;;;;;;;20.90;70.80;;;;;;4924270;28;19965;-83
2022/08/05 03:22:53;;;;;;;;;;;20.90;71.10;;;;;;4940879;28;19953;-84
2022/08/05 03:25:19;;;;;;;;;;;20.80;71.20;;;;;;4927469;28;20356;-84
2022/08/05 03:27:45;;;;;;;;;;;20.80;71.40;;;;;;4936955;29;19969;-84
2022/08/05 03:30:10;;;;;;;;;;;20.80;70.70;;;;;;4933792;29;19919;-84
2022/08/05 03:32:37;;;;;;;;;;;20.80;70.80;;;;;;4933366;29;19910;-84
2022/08/05 03:35:02;;;;;;;;;;;20.80;70.90;;;;;;4935576;29;19914;-83
2022/08/05 03:37:29;;;;;;;;;;;20.80;71.00;;;;;;4933751;28;20400;-85
2022/08/05 03:39:56;;;;;;;;;;;20.80;70.80;;;;;;4933353;29;19911;-84
2022/08/05 03:42:22;;;;;;;;;;;20.80;71.00;;;;;;4934923;28;19917;-84
2022/08/05 03:44:47;;;;;;;;;;;20.80;71.90;;;;;;4932417;29;20289;-83
2022/08/05 03:47:13;;;;;;;;;;;20.80;72.70;;;;;;4946875;28;20289;-84
2022/08/05 03:49:38;;;;;;;;;;;20.80;73.50;;;;;;4933052;29;20297;-83
2022/08/05 03:52:07;;;;;;;;;;;20.70;74.10;;;;;;4948154;29;19926;-84
2022/08/05 03:54:36;;;;;;;;;;;20.70;74.50;;;;;;4950957;28;19965;-84
2022/08/05 03:57:02;;;;;;;;;;;20.70;74.10;;;;;;4952236;28;19910;-83
2022/08/05 03:59:40;;;;;;;;;;;20.60;73.80;;;;;;4936281;29;20337;-83
2022/08/05 04:02:06;;;;;;;;;;;20.60;75.10;;;;;;4945776;29;19938;-84
2022/08/05 04:04:32;;;;;;;;;;;20.50;74.10;;;;;;4923586;29;20361;-84
2022/08/05 04:06:59;;;;;;;;;;;20.40;74.90;;;;;;4962525;28;19922;-84
2022/08/05 04:09:25;;;;;;;;;;;20.40;74.80;;;;;;4952239;28;19989;-84
2022/08/05 04:11:50;;;;;;;;;;;20.40;74.80;;;;;;4933754;28;19914;-85
2022/08/05 04:14:17;;;;;;;;;;;20.40;75.20;;;;;;4951140;29;19917;-84
2022/08/05 04:16:43;;;;;;;;;;;20.40;75.40;;;;;;4948409;28;19918;-85
2022/08/05 04:19:12;;;;;;;;;;;20.40;75.90;;;;;;4932773;29;19981;-83
2022/08/05 04:21:38;;;;;;;;;;;20.40;75.80;;;;;;4944026;28;20029;-83
2022/08/05 04:24:04;;;;;;;;;;;20.50;76.40;;;;;;4935455;29;20039;-84
2022/08/05 04:26:29;;;;;;;;;;;20.50;76.20;;;;;;4931813;28;19944;-83
2022/08/05 04:28:55;;;;;;;;;;;20.60;76.20;;;;;;4933207;28;20040;-84
2022/08/05 04:31:21;;;;;;;;;;;20.70;77.80;;;;;;4953142;28;19921;-84
2022/08/05 04:33:47;;;;;;;;;;;20.80;77.80;;;;;;4935276;29;20013;-83
2022/08/05 04:36:14;;;;;;;;;;;20.80;77.20;;;;;;4942452;28;19957;-84
2022/08/05 04:38:43;;;;;;;;;;;20.80;78.10;;;;;;4962883;28;20365;-83
2022/08/05 04:41:08;;;;;;;;;;;20.80;77.90;;;;;;4964521;28;20403;-84
2022/08/05 04:43:34;;;;;;;;;;;20.80;77.10;;;;;;4927099;29;20005;-83
2022/08/05 04:46:00;;;;;;;;;;;20.90;77.40;;;;;;4941374;28;20380;-84
2022/08/05 04:48:25;;;;;;;;;;;21.00;78.60;;;;;;4916090;29;19922;-84
2022/08/05 04:50:51;;;;;;;;;;;20.90;77.70;;;;;;4934962;28;19921;-84
2022/08/05 04:53:17;;;;;;;;;;;20.90;77.30;;;;;;4933333;29;19911;-84
2022/08/05 04:55:43;;;;;;;;;;;20.90;78.20;;;;;;4949086;28;20390;-84
2022/08/05 04:58:11;;;;;;;;;;;21.00;77.80;;;;;;4935185;29;19914;-84
2022/08/05 05:00:37;;;;;;;;;;;21.00;77.60;;;;;;4935455;29;20457;-84
2022/08/05 05:03:03;;;;;;;;;;;21.00;77.50;;;;;;4931387;29;19989;-83
2022/08/05 05:05:29;;;;;;;;;;;21.00;77.40;;;;;;4918620;29;20009;-84
2022/08/05 05:08:15;;;;;;;;;;;21.10;76.90;;;;;;4932674;29;20025;-84
2022/08/05 05:10:42;;;;;;;;;;;21.20;78.70;;;;;;4935435;29;19914;-83
2022/08/05 05:13:11;;;;;;;;;;;21.30;79.40;;;;;;4934348;29;20374;-83
2022/08/05 05:15:37;;;;;;;;;;;21.20;78.90;;;;;;4934560;29;20442;-84
2022/08/05 05:18:03;;;;;;;;;;;21.20;78.60;;;;;;4933011;28;19997;-84
2022/08/05 05:20:28;;;;;;;;;;;21.20;79.30;;;;;;4918423;29;20301;-83
2022/08/05 05:22:55;;;;;;;;;;;21.20;78.40;;;;;;4947156;28;20018;-84
2022/08/05 05:25:20;;;;;;;;;;;21.20;77.90;;;;;;4916951;29;19921;-84
2022/08/05 05:27:46;;;;;;;;;;;21.40;80.80;;;;;;4929699;29;20025;-84
2022/08/05 05:30:13;;;;;;;;;;;21.50;80.40;;;;;;4915785;29;20070;-84
2022/08/05 05:32:38;;;;;;;;;;;21.60;79.80;;;;;;4930461;29;20021;-84
2022/08/05 05:35:04;;;;;;;;;;;21.70;80.50;;;;;;4914603;29;20018;-83
2022/08/05 05:37:30;;;;;;;;;;;21.80;79.60;;;;;;4930353;29;20400;-84
2022/08/05 05:39:55;;;;;;;;;;;22.10;79.50;;;;;;4947035;28;19915;-84
2022/08/05 05:42:21;;;;;;;;;;;22.40;78.80;;;;;;4931014;29;20289;-84
2022/08/05 05:44:47;;;;;;;;;;;22.80;78.10;;;;;;4930095;29;19925;-83
2022/08/05 05:47:12;;;;;;;;;;;23.20;76.50;;;;;;4957209;28;20429;-83
2022/08/05 05:49:38;;;;;;;;;;;23.50;74.80;;;;;;4931149;29;20332;-84
2022/08/05 05:52:03;;;;;;;;;;;23.80;73.70;;;;;;4945300;28;20543;-84
2022/08/05 05:54:29;;;;;;;;;;;24.00;72.80;;;;;;4929690;29;19918;-84
2022/08/05 05:56:55;;;;;;;;;;;24.30;71.70;;;;;;4944918;28;19914;-84
2022/08/05 05:59:20;;;;;;;;;;;24.40;71.20;;;;;;4933387;29;19925;-84
2022/08/05 06:01:46;;;;;;;;;;;24.50;72.20;;;;;;4962123;28;20621;-84
2022/08/05 06:04:12;;;;;;;;;;;24.80;72.40;;;;;;4925132;28;19921;-85
2022/08/05 06:06:42;;;;;;;;;;;25.10;70.80;;;;;;4941784;28;19915;-84
2022/08/05 06:09:08;;;;;;;;;;;25.40;69.50;;;;;;4953946;28;20065;-84
2022/08/05 06:11:33;;;;;;;;;;;25.80;68.30;;;;;;4938478;28;19997;-84
2022/08/05 06:13:59;;;;;;;;;;;26.20;67.50;;;;;;4945365;29;20460;-85
2022/08/05 06:16:25;;;;;;;;;;;26.30;66.00;;;;;;4938738;28;19911;-85
2022/08/05 06:18:51;;;;;;;;;;;26.30;65.50;;;;;;4934320;28;19910;-84
2022/08/05 06:21:17;;;;;;;;;;;26.30;62.40;;;;;;4942172;28;19962;-84
2022/08/05 06:23:42;;;;;;;;;;;26.10;63.50;;;;;;4946075;28;20407;-84
2022/08/05 06:26:08;;;;;;;;;;;26.00;66.70;;;;;;4949442;29;20001;-84
2022/08/05 06:28:35;;;;;;;;;;;25.90;67.50;;;;;;4930417;29;20381;-83
2022/08/05 06:31:01;;;;;;;;;;;25.70;68.30;;;;;;4933598;29;19933;-83
2022/08/05 06:33:27;;;;;;;;;;;25.60;69.00;;;;;;4933229;28;20420;-84
2022/08/05 06:35:53;;;;;;;;;;;25.40;68.50;;;;;;4962374;28;20373;-83
2022/08/05 06:38:18;;;;;;;;;;;25.30;67.90;;;;;;4934344;28;20418;-84
2022/08/05 06:40:44;;;;;;;;;;;25.20;68.80;;;;;;4944722;28;19922;-84
2022/08/05 06:43:10;;;;;;;;;;;25.00;68.50;;;;;;4930089;29;19915;-85
2022/08/05 06:45:35;;;;;;;;;;;24.90;67.00;;;;;;4956887;28;20356;-84
2022/08/05 06:48:01;;;;;;;;;;;24.90;66.10;;;;;;4934045;29;19915;-84
2022/08/05 06:50:27;;;;;;;;;;;24.90;67.50;;;;;;4936266;29;19919;-85
2022/08/05 06:52:52;;;;;;;;;;;25.10;68.50;;;;;;4921170;29;20321;-84
2022/08/05 06:55:18;;;;;;;;;;;25.60;66.90;;;;;;4936249;29;19923;-85
2022/08/05 06:57:44;;;;;;;;;;;26.30;65.90;;;;;;4953242;28;19976;-84
2022/08/05 07:00:10;;;;;;;;;;;26.80;64.30;;;;;;4933940;29;19911;-84
2022/08/05 07:02:42;;;;;;;;;;;27.20;63.10;;;;;;4917936;29;19914;-85
2022/08/05 07:05:09;;;;;;;;;;;27.60;61.80;;;;;;4933028;29;19918;-85
2022/08/05 07:07:34;;;;;;;;;;;27.90;60.10;;;;;;4943354;28;19937;-84
2022/08/05 07:10:00;;;;;;;;;;;28.20;60.50;;;;;;4949638;29;20395;-84
2022/08/05 07:17:54;;;;;;;;;;;29.20;58.20;;;;;;4934632;29;19954;-85
2022/08/05 07:20:20;;;;;;;;;;;29.40;56.50;;;;;;4947446;29;20019;-84
2022/08/05 07:22:45;;;;;;;;;;;29.50;57.20;;;;;;4936015;29;19941;-85
2022/08/05 07:25:11;;;;;;;;;;;29.40;56.80;;;;;;4952376;29;19918;-85
2022/08/05 07:27:36;;;;;;;;;;;29.20;56.80;;;;;;4936500;29;19926;-85
2022/08/05 07:30:02;;;;;;;;;;;29.10;58.00;;;;;;4933477;29;19930;-84
2022/08/05 07:32:28;;;;;;;;;;;29.10;57.20;;;;;;4948238;28;19911;-84
2022/08/05 07:34:54;;;;;;;;;;;29.30;57.70;;;;;;4931765;29;20395;-84
2022/08/05 07:37:19;;;;;;;;;;;29.70;56.80;;;;;;4936209;29;19949;-84
2022/08/05 07:39:45;;;;;;;;;;;30.10;57.00;;;;;;4949079;28;19998;-85
2022/08/05 07:42:11;;;;;;;;;;;30.70;55.70;;;;;;4917293;29;20297;-84
2022/08/05 07:44:36;;;;;;;;;;;31.20;54.70;;;;;;4916012;29;19950;-84
2022/08/05 07:47:02;;;;;;;;;;;31.70;53.80;;;;;;4953841;28;20015;-85
2022/08/05 07:49:28;;;;;;;;;;;32.00;53.30;;;;;;4951698;28;19925;-84
2022/08/05 07:51:53;;;;;;;;;;;32.30;52.60;;;;;;4941238;29;19914;-86
2022/08/05 07:54:20;;;;;;;;;;;32.50;51.70;;;;;;4934669;28;19924;-85
2022/08/05 07:56:46;;;;;;;;;;;32.60;50.90;;;;;;4939884;29;19922;-85
2022/08/05 07:59:12;;;;;;;;;;;32.60;49.90;;;;;;4947861;28;19966;-85
2022/08/05 08:01:37;;;;;;;;;;;32.50;50.40;;;;;;4967737;28;19918;-85
2022/08/05 08:04:03;;;;;;;;;;;32.40;51.20;;;;;;4934091;28;19914;-83
2022/08/05 08:06:30;;;;;;;;;;;32.50;51.90;;;;;;4910818;28;20009;-84
2022/08/05 08:08:55;;;;;;;;;;;32.30;51.70;;;;;;4932456;29;19915;-84
2022/08/05 08:11:21;;;;;;;;;;;32.30;52.10;;;;;;4941873;28;20039;-84
2022/08/05 08:13:46;;;;;;;;;;;32.20;51.30;;;;;;4915974;29;19919;-85
2022/08/05 08:16:12;;;;;;;;;;;31.90;51.00;;;;;;4950801;28;19982;-84
2022/08/05 08:18:38;;;;;;;;;;;31.70;51.50;;;;;;4951351;28;20400;-85
2022/08/05 08:21:04;;;;;;;;;;;31.40;52.20;;;;;;4955319;28;20009;-86
2022/08/05 08:23:30;;;;;;;;;;;31.30;53.20;;;;;;4950613;28;20046;-85
2022/08/05 08:25:55;;;;;;;;;;;31.10;52.70;;;;;;4950340;28;19997;-84
2022/08/05 08:28:21;;;;;;;;;;;30.90;53.00;;;;;;4950978;28;19918;-85
2022/08/05 08:30:47;;;;;;;;;;;30.70;53.50;;;;;;4936742;29;19929;-85
2022/08/05 08:33:12;;;;;;;;;;;30.60;56.80;;;;;;4922602;28;20393;-84
2022/08/05 08:35:38;;;;;;;;;;;30.50;55.90;;;;;;4941179;29;19930;-85
2022/08/05 08:38:04;;;;;;;;;;;30.30;56.40;;;;;;4946537;28;19914;-85
2022/08/05 08:40:34;;;;;;;;;;;30.10;57.60;;;;;;4949854;28;19932;-84
2022/08/05 08:43:00;;;;;;;;;;;29.90;55.40;;;;;;4933374;29;19917;-85
2022/08/05 08:45:26;;;;;;;;;;;29.80;57.80;;;;;;4950314;29;19914;-84
2022/08/05 08:47:53;;;;;;;;;;;29.70;58.40;;;;;;4928516;29;20323;-85
2022/08/05 08:50:19;;;;;;;;;;;29.60;58.70;;;;;;4932804;29;19952;-84
2022/08/05 08:52:57;;;;;;;;;;;29.60;57.00;;;;;;4950510;28;19914;-85
2022/08/05 08:55:23;;;;;;;;;;;29.60;57.70;;;;;;4933023;29;19922;-84
2022/08/05 08:57:48;;;;;;;;;;;29.60;56.70;;;;;;4931533;29;19914;-85
2022/08/05 09:00:15;;;;;;;;;;;29.60;56.60;;;;;;4929359;28;19911;-84
2022/08/05 09:02:41;;;;;;;;;;;29.50;57.30;;;;;;4934810;29;19911;-85
2022/08/05 09:05:09;;;;;;;;;;;29.40;58.00;;;;;;4930189;29;19934;-84
2022/08/05 09:07:35;;;;;;;;;;;29.30;57.20;;;;;;4966049;28;19910;-84
2022/08/05 09:10:00;;;;;;;;;;;29.10;58.30;;;;;;4934755;29;19945;-84
2022/08/05 09:12:26;;;;;;;;;;;28.90;59.70;;;;;;4934816;29;19942;-84
2022/08/05 09:14:52;;;;;;;;;;;28.80;59.90;;;;;;4933667;29;19956;-84
2022/08/05 09:17:17;;;;;;;;;;;28.80;59.70;;;;;;4963766;28;20391;-84
2022/08/05 09:19:43;;;;;;;;;;;28.90;59.20;;;;;;4936628;28;20337;-85
2022/08/05 09:22:09;;;;;;;;;;;29.00;59.20;;;;;;4930969;29;19962;-84
2022/08/05 09:24:36;;;;;;;;;;;29.30;59.30;;;;;;4930158;29;19907;-84
2022/08/05 09:27:06;;;;;;;;;;;29.50;59.10;;;;;;4962043;28;20395;-84
2022/08/05 09:29:44;;;;;;;;;;;29.50;56.40;;;;;;4950451;28;19914;-85
2022/08/05 09:32:10;;;;;;;;;;;29.40;59.00;;;;;;4936059;29;19910;-84
2022/08/05 09:34:49;;;;;;;;;;;29.50;59.50;;;;;;4914065;29;19937;-84
2022/08/05 09:37:18;;;;;;;;;;;29.50;58.80;;;;;;4915357;29;19948;-84
2022/08/05 09:39:44;;;;;;;;;;;29.40;59.20;;;;;;4947164;28;20333;-85
2022/08/05 09:42:11;;;;;;;;;;;29.40;58.90;;;;;;4943580;28;19919;-85
2022/08/05 09:44:41;;;;;;;;;;;29.30;59.30;;;;;;4946116;28;19911;-83
2022/08/05 09:47:08;;;;;;;;;;;29.30;57.90;;;;;;4949541;28;19917;-84
2022/08/05 09:49:33;;;;;;;;;;;29.30;59.10;;;;;;4930812;29;20147;-84
2022/08/05 09:52:15;;;;;;;;;;;29.30;59.30;;;;;;4933961;28;19914;-84
2022/08/05 09:54:50;;;;;;;;;;;29.30;58.70;;;;;;4961454;28;20421;-85
2022/08/05 09:57:27;;;;;;;;;;;29.40;58.60;;;;;;4933710;28;19920;-84
2022/08/05 09:59:55;;;;;;;;;;;29.40;56.10;;;;;;4966222;28;19910;-84
2022/08/05 10:02:31;;;;;;;;;;;29.50;57.70;;;;;;4949630;28;19906;-85
2022/08/05 10:05:02;;;;;;;;;;;29.60;58.20;;;;;;4964862;28;20590;-84
2022/08/05 10:07:48;;;;;;;;;;;29.60;54.80;;;;;;4948214;29;19915;-84
2022/08/05 10:10:18;;;;;;;;;;;29.40;55.50;;;;;;4933420;29;20660;-85
2022/08/05 10:12:46;;;;;;;;;;;29.40;56.70;;;;;;4930660;29;20557;-84
2022/08/05 10:15:22;;;;;;;;;;;29.40;58.30;;;;;;4914666;29;20361;-84
2022/08/05 10:18:02;;;;;;;;;;;29.40;57.70;;;;;;4934543;29;19910;-84
2022/08/05 10:20:28;;;;;;;;;;;29.60;56.40;;;;;;4937300;29;20289;-86
2022/08/05 10:22:55;;;;;;;;;;;29.60;55.00;;;;;;4936753;29;20701;-84
2022/08/05 10:25:20;;;;;;;;;;;29.70;55.00;;;;;;4952991;28;20047;-85
2022/08/05 10:27:46;;;;;;;;;;;29.70;55.40;;;;;;4937535;29;20413;-84
2022/08/05 10:30:12;;;;;;;;;;;29.80;54.20;;;;;;4934951;29;19930;-85
2022/08/05 10:32:37;;;;;;;;;;;30.00;55.70;;;;;;4949739;29;19998;-85
2022/08/05 10:35:03;;;;;;;;;;;30.10;54.20;;;;;;4933656;28;20352;-85
2022/08/05 10:37:30;;;;;;;;;;;30.20;53.80;;;;;;4949467;28;19914;-84
2022/08/05 10:39:58;;;;;;;;;;;30.30;52.60;;;;;;4950148;28;20254;-85
2022/08/05 10:42:26;;;;;;;;;;;30.40;54.40;;;;;;4933061;29;19914;-84
2022/08/05 10:44:53;;;;;;;;;;;30.40;52.60;;;;;;4948711;28;20028;-85
2022/08/05 10:47:19;;;;;;;;;;;30.40;54.70;;;;;;4938889;29;19922;-84
2022/08/05 10:50:06;;;;;;;;;;;30.50;50.80;;;;;;4950324;28;19915;-84
2022/08/05 10:52:42;;;;;;;;;;;30.60;51.50;;;;;;4968590;28;19910;-85
2022/08/05 10:55:09;;;;;;;;;;;30.70;51.50;;;;;;4936381;29;20376;-83
2022/08/05 10:57:38;;;;;;;;;;;30.80;52.20;;;;;;4953201;28;20361;-83
2022/08/05 11:00:17;;;;;;;;;;;30.80;52.40;;;;;;4953060;28;20012;-84
2022/08/05 11:02:58;;;;;;;;;;;30.90;50.90;;;;;;4934439;29;20005;-84
2022/08/05 11:05:24;;;;;;;;;;;30.90;52.10;;;;;;4951599;29;19954;-84
2022/08/05 11:07:56;;;;;;;;;;;30.90;52.30;;;;;;4952666;28;19958;-83
2022/08/05 11:10:23;;;;;;;;;;;31.00;51.20;;;;;;4952599;28;20277;-84
2022/08/05 11:12:48;;;;;;;;;;;31.00;51.50;;;;;;4949204;28;19915;-84
2022/08/05 11:15:14;;;;;;;;;;;31.00;52.00;;;;;;4917692;29;19922;-85
2022/08/05 11:17:40;;;;;;;;;;;31.10;51.50;;;;;;4952109;28;19917;-85
2022/08/05 11:20:06;;;;;;;;;;;31.20;50.50;;;;;;4934348;29;19906;-84
2022/08/05 11:22:40;;;;;;;;;;;31.10;49.50;;;;;;4948228;28;19957;-83
2022/08/05 11:25:24;;;;;;;;;;;31.20;50.20;;;;;;4946508;29;20012;-84
2022/08/05 11:27:50;;;;;;;;;;;31.30;49.40;;;;;;4953520;28;19962;-85
2022/08/05 11:30:15;;;;;;;;;;;31.30;49.20;;;;;;4939799;28;20337;-84
2022/08/05 11:32:41;;;;;;;;;;;31.40;50.20;;;;;;4931444;29;19957;-85
2022/08/05 11:35:07;;;;;;;;;;;31.60;50.30;;;;;;4955913;28;19910;-84
2022/08/05 11:37:36;;;;;;;;;;;31.70;52.00;;;;;;4947951;28;20318;-86
2022/08/05 11:40:01;;;;;;;;;;;31.80;48.70;;;;;;4945369;29;20381;-84
2022/08/05 11:42:27;;;;;;;;;;;31.90;46.70;;;;;;4931284;28;19919;-85
2022/08/05 11:44:55;;;;;;;;;;;32.00;48.00;;;;;;4916283;29;19966;-84
2022/08/05 11:47:22;;;;;;;;;;;32.10;50.90;;;;;;4963074;28;19915;-85
2022/08/05 11:49:53;;;;;;;;;;;32.10;49.70;;;;;;4933062;29;19921;-85
2022/08/05 11:52:23;;;;;;;;;;;32.10;46.20;;;;;;4950045;29;20296;-85
2022/08/05 11:54:49;;;;;;;;;;;32.10;48.50;;;;;;4935000;29;20544;-84
2022/08/05 11:57:15;;;;;;;;;;;32.10;48.40;;;;;;4946034;28;19911;-84
2022/08/05 11:59:42;;;;;;;;;;;32.20;47.60;;;;;;4932609;29;19977;-84
2022/08/05 12:02:08;;;;;;;;;;;32.30;48.60;;;;;;4932869;29;19915;-85
2022/08/05 12:04:41;;;;;;;;;;;32.50;49.70;;;;;;4915634;29;19915;-85
2022/08/05 12:07:08;;;;;;;;;;;32.50;44.10;;;;;;4948279;29;19961;-84
2022/08/05 12:09:38;;;;;;;;;;;32.40;46.60;;;;;;4948570;29;20005;-85
2022/08/05 12:12:04;;;;;;;;;;;32.20;46.40;;;;;;4960731;28;20009;-83
2022/08/05 12:14:37;;;;;;;;;;;32.00;46.50;;;;;;4947487;28;19911;-85
2022/08/05 12:17:07;;;;;;;;;;;31.70;48.90;;;;;;4946823;28;19921;-85
2022/08/05 12:19:39;;;;;;;;;;;31.60;49.70;;;;;;4960908;28;19917;-84
2022/08/05 12:22:05;;;;;;;;;;;31.40;48.40;;;;;;4948712;28;19946;-83
2022/08/05 12:24:31;;;;;;;;;;;31.40;50.30;;;;;;4922316;28;19960;-86
2022/08/05 12:26:56;;;;;;;;;;;31.40;48.90;;;;;;4930985;29;19915;-85
2022/08/05 12:29:23;;;;;;;;;;;31.30;51.80;;;;;;4938016;28;19918;-85
2022/08/05 12:31:51;;;;;;;;;;;31.40;51.30;;;;;;4947135;28;20012;-86
2022/08/05 12:34:18;;;;;;;;;;;31.50;49.70;;;;;;4936599;28;19915;-85
2022/08/05 12:36:45;;;;;;;;;;;31.60;47.20;;;;;;4939580;28;20377;-86
2022/08/05 12:39:11;;;;;;;;;;;31.70;49.80;;;;;;4916124;29;20405;-86
2022/08/05 12:41:37;;;;;;;;;;;31.80;50.10;;;;;;4942370;28;20005;-88
2022/08/05 12:44:13;;;;;;;;;;;32.00;50.10;;;;;;4931176;29;20301;-86
2022/08/05 12:46:39;;;;;;;;;;;32.20;48.40;;;;;;4959637;28;19994;-85
2022/08/05 12:49:13;;;;;;;;;;;32.40;47.80;;;;;;4934933;29;19918;-86
2022/08/05 12:51:52;;;;;;;;;;;32.50;47.50;;;;;;4951247;28;19918;-85
2022/08/05 12:54:19;;;;;;;;;;;32.70;48.40;;;;;;4934175;28;19953;-86
2022/08/05 12:56:52;;;;;;;;;;;32.80;47.90;;;;;;4935089;28;20389;-86
2022/08/05 12:59:25;;;;;;;;;;;33.00;46.50;;;;;;4934829;29;19922;-86
2022/08/05 13:01:56;;;;;;;;;;;33.10;45.60;;;;;;4942752;29;19919;-85
2022/08/05 13:04:25;;;;;;;;;;;33.20;46.60;;;;;;4930464;29;19962;-86
2022/08/05 13:06:50;;;;;;;;;;;33.50;45.90;;;;;;4944909;28;19913;-86
2022/08/05 13:09:16;;;;;;;;;;;33.60;46.30;;;;;;4934856;28;19918;-85
2022/08/05 13:11:43;;;;;;;;;;;33.80;45.90;;;;;;4939293;28;19910;-84
2022/08/05 13:14:13;;;;;;;;;;;33.80;44.30;;;;;;4934146;29;19918;-84
2022/08/05 13:16:50;;;;;;;;;;;33.80;45.20;;;;;;4950459;28;19914;-84
2022/08/05 13:19:15;;;;;;;;;;;33.80;45.40;;;;;;4962737;28;20059;-84
2022/08/05 13:21:41;;;;;;;;;;;34.00;45.90;;;;;;4944843;29;20403;-84
2022/08/05 13:24:07;;;;;;;;;;;34.00;45.80;;;;;;4933910;29;20005;-84
2022/08/05 13:26:32;;;;;;;;;;;34.10;44.10;;;;;;4933453;28;19914;-83
2022/08/05 13:28:58;;;;;;;;;;;34.00;44.20;;;;;;4932623;28;20301;-84
2022/08/05 13:31:24;;;;;;;;;;;33.80;43.50;;;;;;4938404;28;20397;-84
2022/08/05 13:33:49;;;;;;;;;;;33.60;43.90;;;;;;4930893;29;19914;-83
2022/08/05 13:36:15;;;;;;;;;;;33.40;45.60;;;;;;4949903;29;19917;-84
2022/08/05 13:38:41;;;;;;;;;;;33.30;44.80;;;;;;4931851;28;19957;-84
2022/08/05 13:41:06;;;;;;;;;;;33.10;46.40;;;;;;4922287;29;20400;-85
2022/08/05 13:43:32;;;;;;;;;;;32.90;45.90;;;;;;4898976;29;19914;-84
2022/08/05 13:45:58;;;;;;;;;;;32.70;46.20;;;;;;4921571;29;19918;-84
2022/08/05 13:48:23;;;;;;;;;;;32.50;47.00;;;;;;4947242;28;19914;-84
2022/08/05 13:50:49;;;;;;;;;;;32.40;47.60;;;;;;4921956;29;20072;-84
2022/08/05 13:53:14;;;;;;;;;;;32.30;47.50;;;;;;4922764;29;19952;-84
2022/08/05 13:55:40;;;;;;;;;;;32.30;47.40;;;;;;4915928;29;19918;-85
2022/08/05 13:58:06;;;;;;;;;;;32.30;47.90;;;;;;4931227;29;19938;-84
2022/08/05 14:00:32;;;;;;;;;;;32.40;47.00;;;;;;4950064;28;19917;-84
2022/08/05 14:02:57;;;;;;;;;;;32.30;48.40;;;;;;4931107;29;19997;-87
2022/08/05 14:05:23;;;;;;;;;;;32.30;46.70;;;;;;4932770;29;20055;-85
2022/08/05 14:07:52;;;;;;;;;;;32.20;47.10;;;;;;4950776;28;19914;-84
2022/08/05 14:10:21;;;;;;;;;;;32.10;47.30;;;;;;4932419;29;19923;-84
2022/08/05 14:12:47;;;;;;;;;;;31.90;48.10;;;;;;4933774;29;20365;-86
2022/08/05 14:15:13;;;;;;;;;;;31.80;49.20;;;;;;4949620;28;19910;-84
2022/08/05 14:17:39;;;;;;;;;;;31.80;48.40;;;;;;4945220;28;19921;-85
2022/08/05 14:20:05;;;;;;;;;;;31.90;49.00;;;;;;4937850;29;19910;-85
2022/08/05 14:22:35;;;;;;;;;;;32.00;47.90;;;;;;4950277;29;19918;-85